createdAt,value
2023-03-26T00:00:23.722Z,0.17
2023-03-26T00:02:03.408Z,0.19
2023-03-26T00:03:43.179Z,0.17
2023-03-26T00:05:22.941Z,0.14
2023-03-26T00:07:02.768Z,0.14
2023-03-26T00:08:42.463Z,0.12
2023-03-26T00:10:22.243Z,0.1
2023-03-26T00:12:02.008Z,0.13
2023-03-26T00:13:41.763Z,0.15
2023-03-26T00:15:21.514Z,0.12
2023-03-26T00:17:01.293Z,0.1
2023-03-26T00:18:41.054Z,0.1
2023-03-26T00:20:20.796Z,0.1
2023-03-26T00:22:00.569Z,0.12
2023-03-26T00:23:40.367Z,0.08
2023-03-26T00:25:20.098Z,0.04
2023-03-26T00:26:59.867Z,0.04
2023-03-26T00:28:39.624Z,0.02
2023-03-26T00:30:19.396Z,0.02
2023-03-26T00:31:59.283Z,0.03
2023-03-26T00:33:38.925Z,0.06
2023-03-26T00:35:18.687Z,0.06
2023-03-26T00:36:58.516Z,0.05
2023-03-26T00:38:38.339Z,0.07
2023-03-26T00:40:17.987Z,0.08
2023-03-26T00:41:57.782Z,0.1
2023-03-26T00:43:37.531Z,0.12
2023-03-26T00:45:17.298Z,0.1
2023-03-26T00:46:57.165Z,0.06
2023-03-26T00:48:36.811Z,0.08
2023-03-26T00:50:16.593Z,0.06
2023-03-26T00:51:56.386Z,0.06
2023-03-26T00:53:36.112Z,0.06
2023-03-26T00:55:15.854Z,0.08
2023-03-26T00:56:55.726Z,0.07
2023-03-26T00:58:35.380Z,0.09
2023-03-26T01:00:15.143Z,0.11
2023-03-26T01:01:54.989Z,0.09
2023-03-26T01:03:34.686Z,0.11
2023-03-26T01:05:14.440Z,0.11
2023-03-26T01:06:54.330Z,0.13
2023-03-26T01:08:34.124Z,0.17
2023-03-26T01:10:13.723Z,0.17
2023-03-26T01:11:53.605Z,0.17
2023-03-26T01:13:33.257Z,0.18
2023-03-26T01:15:13.025Z,0.18
2023-03-26T01:16:52.873Z,0.18
2023-03-26T01:18:32.538Z,0.18
2023-03-26T01:20:12.326Z,0.21
2023-03-26T01:21:52.086Z,0.2
2023-03-26T01:23:31.924Z,0.2
2023-03-26T01:25:11.683Z,0.2
2023-03-26T01:26:51.371Z,0.19
2023-03-26T01:28:31.132Z,0.17
2023-03-26T01:30:10.924Z,0.19
2023-03-26T01:31:50.641Z,0.19
2023-03-26T01:33:30.504Z,0.19
2023-03-26T01:35:10.276Z,0.19
2023-03-26T01:36:49.968Z,0.19
2023-03-26T01:38:29.776Z,0.21
2023-03-26T01:40:09.502Z,0.19
2023-03-26T01:41:49.281Z,0.17
2023-03-26T01:43:28.999Z,0.15
2023-03-26T01:45:08.911Z,0.15
2023-03-26T01:46:48.581Z,0.15
2023-03-26T01:48:28.346Z,0.16
2023-03-26T01:50:08.099Z,0.19
2023-03-26T01:51:47.839Z,0.2
2023-03-26T01:53:27.589Z,0.2
2023-03-26T01:55:07.485Z,0.2
2023-03-26T01:56:47.150Z,0.2
2023-03-26T01:58:26.911Z,0.2
2023-03-26T02:00:06.649Z,0.18
2023-03-26T02:01:46.418Z,0.19
2023-03-26T02:03:26.167Z,0.17
2023-03-26T02:05:05.940Z,0.15
2023-03-26T02:06:45.702Z,0.15
2023-03-26T02:08:25.472Z,0.16
2023-03-26T02:10:05.234Z,0.15
2023-03-26T02:11:44.994Z,0.15
2023-03-26T02:13:24.764Z,0.15
2023-03-26T02:15:04.590Z,0.15
2023-03-26T02:16:44.292Z,0.13
2023-03-26T02:18:24.055Z,0.15
2023-03-26T02:20:03.826Z,0.15
2023-03-26T02:21:43.575Z,0.15
2023-03-26T02:23:23.337Z,0.15
2023-03-26T02:25:03.102Z,0.14
2023-03-26T02:26:42.868Z,0.14
2023-03-26T02:28:22.623Z,0.12
2023-03-26T02:30:02.546Z,0.07
2023-03-26T02:31:42.144Z,0.06
2023-03-26T02:33:21.923Z,0.06
2023-03-26T02:35:01.734Z,0.03
2023-03-26T02:36:41.453Z,0.01
2023-03-26T02:38:21.225Z,0.03
2023-03-26T02:40:00.974Z,0.03
2023-03-26T02:41:40.731Z,0.03
2023-03-26T02:43:20.510Z,0.01
2023-03-26T02:45:00.285Z,0.02
2023-03-26T02:46:40.025Z,0.02
2023-03-26T02:48:19.786Z,0.02
2023-03-26T02:49:59.559Z,0.02
2023-03-26T02:51:39.333Z,0.02
2023-03-26T02:53:19.090Z,0.03
2023-03-26T02:54:58.855Z,0.03
2023-03-26T02:56:38.612Z,0.03
2023-03-26T02:58:18.375Z,0.03
2023-03-26T02:59:58.138Z,0.04
2023-03-26T03:01:37.941Z,0.04
2023-03-26T03:03:17.687Z,0.04
2023-03-26T03:04:57.440Z,0.04
2023-03-26T03:06:37.173Z,0.04
2023-03-26T03:08:16.966Z,0.05
2023-03-26T03:09:56.748Z,0.05
2023-03-26T03:11:36.494Z,0.05
2023-03-26T03:13:16.243Z,0.05
2023-03-26T03:14:56.025Z,0.05
2023-03-26T03:16:35.798Z,0.07
2023-03-26T03:18:15.542Z,0.07
2023-03-26T03:19:55.310Z,0.07
2023-03-26T03:21:35.088Z,0.09
2023-03-26T03:23:14.830Z,0.09
2023-03-26T03:24:54.605Z,0.1
2023-03-26T03:26:34.357Z,0.09
2023-03-26T03:28:14.142Z,0.07
2023-03-26T03:29:53.901Z,0.07
2023-03-26T03:31:33.659Z,0.09
2023-03-26T03:33:13.425Z,0.12
2023-03-26T03:34:53.182Z,0.14
2023-03-26T03:36:33.028Z,0.17
2023-03-26T03:38:12.720Z,0.17
2023-03-26T03:39:52.498Z,0.17
2023-03-26T03:41:32.236Z,0.17
2023-03-26T03:43:12.007Z,0.17
2023-03-26T03:44:51.765Z,0.17
2023-03-26T03:46:31.544Z,0.17
2023-03-26T03:48:11.297Z,0.14
2023-03-26T03:49:51.069Z,0.12
2023-03-26T03:51:30.831Z,0.13
2023-03-26T03:53:10.581Z,0.14
2023-03-26T03:54:50.374Z,0.16
2023-03-26T03:56:30.125Z,0.16
2023-03-26T03:58:09.879Z,0.18
2023-03-26T03:59:49.645Z,0.2
2023-03-26T04:01:29.409Z,0.24
2023-03-26T04:03:09.225Z,0.24
2023-03-26T04:04:48.935Z,0.28
2023-03-26T04:06:28.696Z,0.32
2023-03-26T04:08:08.468Z,0.39
2023-03-26T04:09:48.215Z,0.49
2023-03-26T04:11:28.004Z,0.63
2023-03-26T04:13:07.743Z,0.79
2023-03-26T04:14:47.513Z,0.99
2023-03-26T04:16:27.270Z,1.25
2023-03-26T04:18:07.046Z,1.5
2023-03-26T04:19:46.811Z,2
2023-03-26T04:21:26.580Z,2.86
2023-03-26T04:23:06.334Z,3.26
2023-03-26T04:24:46.104Z,4.54
2023-03-26T04:26:25.862Z,6.4
2023-03-26T04:28:05.630Z,8.05
2023-03-26T04:29:45.395Z,11.07
2023-03-26T04:31:25.153Z,12.59
2023-03-26T04:33:04.930Z,12.63
2023-03-26T04:34:44.675Z,12.63
2023-03-26T04:36:24.439Z,12.66
2023-03-26T04:38:04.200Z,12.67
2023-03-26T04:39:43.986Z,12.69
2023-03-26T04:41:23.740Z,12.72
2023-03-26T04:43:03.513Z,12.72
2023-03-26T04:44:43.272Z,12.74
2023-03-26T04:46:23.025Z,12.75
2023-03-26T04:48:02.800Z,12.76
2023-03-26T04:49:42.552Z,12.77
2023-03-26T04:51:22.438Z,12.79
2023-03-26T04:53:02.070Z,12.78
2023-03-26T04:54:41.865Z,12.77
2023-03-26T04:56:21.634Z,12.78
2023-03-26T04:58:01.431Z,12.81
2023-03-26T04:59:41.152Z,12.82
2023-03-26T05:01:20.912Z,12.83
2023-03-26T05:03:00.754Z,12.85
2023-03-26T05:04:40.469Z,12.87
2023-03-26T05:06:20.188Z,30.39
2023-03-26T05:07:59.957Z,20.39
2023-03-26T05:09:39.710Z,21.81
2023-03-26T05:11:19.497Z,14.9
2023-03-26T05:12:59.265Z,14.84
2023-03-26T05:14:39.020Z,14.01
2023-03-26T05:16:18.778Z,14.01
2023-03-26T05:17:58.543Z,14.02
2023-03-26T05:19:38.320Z,14.05
2023-03-26T05:21:18.087Z,14.06
2023-03-26T05:22:57.834Z,14.09
2023-03-26T05:24:37.599Z,14.09
2023-03-26T05:26:17.367Z,14.1
2023-03-26T05:27:57.118Z,14.09
2023-03-26T05:29:36.903Z,14.15
2023-03-26T05:31:16.647Z,14.11
2023-03-26T05:32:56.411Z,14.15
2023-03-26T05:34:36.188Z,14.19
2023-03-26T05:36:15.951Z,14.14
2023-03-26T05:37:55.703Z,14.2
2023-03-26T05:39:35.472Z,14.23
2023-03-26T05:41:15.235Z,14.26
2023-03-26T05:42:55.019Z,14.24
2023-03-26T05:44:34.760Z,14.27
2023-03-26T05:46:14.531Z,14.29
2023-03-26T05:47:54.293Z,14.35
2023-03-26T05:49:34.078Z,14.35
2023-03-26T05:51:13.819Z,14.39
2023-03-26T05:52:53.612Z,14.4
2023-03-26T05:54:33.353Z,14.51
2023-03-26T05:56:13.109Z,14.54
2023-03-26T05:57:52.870Z,14.62
2023-03-26T05:59:32.642Z,14.65
2023-03-26T06:01:12.410Z,14.72
2023-03-26T06:02:52.286Z,14.76
2023-03-26T06:04:31.940Z,14.78
2023-03-26T06:06:11.711Z,14.78
2023-03-26T06:07:51.472Z,14.86
2023-03-26T06:09:31.219Z,14.8
2023-03-26T06:11:11.046Z,14.88
2023-03-26T06:12:50.748Z,18.12
2023-03-26T06:14:30.548Z,14.93
2023-03-26T06:16:10.275Z,14.97
2023-03-26T06:17:50.044Z,14.99
2023-03-26T06:19:29.813Z,15.1
2023-03-26T06:21:09.572Z,15.18
2023-03-26T06:22:49.337Z,15.15
2023-03-26T06:24:29.093Z,15.19
2023-03-26T06:26:08.858Z,15.17
2023-03-26T06:27:48.626Z,15.14
2023-03-26T06:29:28.428Z,15.12
2023-03-26T06:31:08.155Z,15.06
2023-03-26T06:32:47.916Z,15.1
2023-03-26T06:34:27.670Z,15.14
2023-03-26T06:36:07.447Z,15.17
2023-03-26T06:37:47.218Z,15.17
2023-03-26T06:39:26.979Z,15.32
2023-03-26T06:41:06.769Z,15.49
2023-03-26T06:42:46.503Z,15.66
2023-03-26T06:44:26.265Z,15.8
2023-03-26T06:46:06.118Z,15.86
2023-03-26T06:47:45.834Z,15.88
2023-03-26T06:49:25.571Z,16.1
2023-03-26T06:51:05.406Z,16.11
2023-03-26T06:52:45.083Z,16.06
2023-03-26T06:54:24.840Z,15.88
2023-03-26T06:56:04.604Z,15.81
2023-03-26T06:57:44.401Z,15.87
2023-03-26T06:59:24.159Z,15.83
2023-03-26T07:01:03.950Z,15.82
2023-03-26T07:02:43.661Z,16
2023-03-26T07:04:23.434Z,16
2023-03-26T07:06:03.361Z,16.11
2023-03-26T07:07:42.962Z,47.34
2023-03-26T07:09:22.803Z,46.2
2023-03-26T07:11:02.677Z,45.84
2023-03-26T07:12:42.269Z,45.14
2023-03-26T07:14:22.037Z,45.48
2023-03-26T07:16:01.791Z,45.48
2023-03-26T07:17:41.562Z,45.51
2023-03-26T07:19:21.333Z,45.43
2023-03-26T07:21:01.159Z,45.92
2023-03-26T07:22:40.847Z,46.34
2023-03-26T07:24:20.619Z,47.03
2023-03-26T07:26:00.396Z,46.46
2023-03-26T07:27:40.130Z,46.74
2023-03-26T07:29:19.911Z,47.48
2023-03-26T07:30:59.712Z,46.64
2023-03-26T07:32:39.441Z,48.08
2023-03-26T07:34:19.207Z,47.16
2023-03-26T07:35:58.966Z,46.54
2023-03-26T07:37:38.717Z,46.27
2023-03-26T07:39:18.501Z,47.17
2023-03-26T07:40:58.242Z,46.54
2023-03-26T07:42:38.013Z,46.39
2023-03-26T07:44:17.776Z,45.89
2023-03-26T07:45:57.593Z,45.49
2023-03-26T07:47:37.377Z,43.96
2023-03-26T07:49:17.169Z,44.34
2023-03-26T07:50:56.827Z,44.22
2023-03-26T07:52:36.594Z,44.58
2023-03-26T07:54:16.414Z,45.35
2023-03-26T07:55:56.167Z,45.16
2023-03-26T07:57:35.889Z,44.68
2023-03-26T07:59:15.662Z,44.96
2023-03-26T08:00:55.426Z,45.46
2023-03-26T08:02:35.177Z,45.19
2023-03-26T08:04:14.925Z,44.33
2023-03-26T08:05:54.719Z,44.19
2023-03-26T08:07:34.532Z,44.74
2023-03-26T08:09:14.262Z,44.8
2023-03-26T08:10:54.001Z,45.48
2023-03-26T08:12:33.751Z,45.83
2023-03-26T08:14:13.554Z,45.84
2023-03-26T08:15:53.329Z,45.85
2023-03-26T08:17:33.083Z,45.95
2023-03-26T08:19:12.835Z,46.21
2023-03-26T08:20:52.567Z,45.95
2023-03-26T08:22:32.477Z,45.8
2023-03-26T08:24:12.225Z,45.53
2023-03-26T08:25:51.896Z,45.34
2023-03-26T08:27:31.765Z,45.35
2023-03-26T08:29:11.404Z,44.84
2023-03-26T08:30:51.177Z,44.69
2023-03-26T08:32:30.952Z,44.79
2023-03-26T08:34:10.690Z,45.28
2023-03-26T08:35:50.515Z,45.31
2023-03-26T08:37:30.227Z,45.28
2023-03-26T08:39:09.986Z,45.72
2023-03-26T08:40:49.764Z,46.07
2023-03-26T08:42:29.497Z,46.27
2023-03-26T08:44:09.281Z,46.37
2023-03-26T08:45:49.060Z,46.44
2023-03-26T08:47:28.898Z,46.56
2023-03-26T08:49:08.709Z,46.59
2023-03-26T08:50:48.322Z,46.7
2023-03-26T08:52:28.080Z,46.78
2023-03-26T08:54:07.874Z,46.63
2023-03-26T08:55:47.638Z,46.04
2023-03-26T08:57:27.386Z,46.59
2023-03-26T08:59:07.245Z,46.64
2023-03-26T09:00:46.944Z,46.34
2023-03-26T09:02:26.847Z,46.62
2023-03-26T09:04:06.462Z,46.5
2023-03-26T09:05:46.251Z,46.64
2023-03-26T09:07:26.028Z,46.98
2023-03-26T09:09:05.952Z,46.92
2023-03-26T09:10:45.629Z,46.96
2023-03-26T09:12:25.276Z,46.99
2023-03-26T09:14:05.027Z,47.02
2023-03-26T09:15:44.896Z,47.05
2023-03-26T09:17:24.542Z,47.03
2023-03-26T09:19:04.308Z,47.09
2023-03-26T09:20:44.067Z,47.12
2023-03-26T09:22:23.957Z,47.05
2023-03-26T09:24:03.599Z,46.97
2023-03-26T09:25:43.451Z,46.8
2023-03-26T09:27:23.141Z,46.87
2023-03-26T09:29:02.894Z,47.02
2023-03-26T09:30:42.651Z,47.08
2023-03-26T09:32:22.461Z,47.07
2023-03-26T09:34:02.234Z,47.11
2023-03-26T09:35:41.956Z,47.09
2023-03-26T09:37:21.721Z,46.97
2023-03-26T09:40:41.269Z,46.74
2023-03-26T09:42:21.021Z,46.61
2023-03-26T09:44:00.782Z,46.61
2023-03-26T09:45:40.536Z,46.65
2023-03-26T09:47:20.331Z,46.87
2023-03-26T09:49:00.174Z,46.94
2023-03-26T09:50:39.823Z,46.98
2023-03-26T09:52:19.616Z,46.83
2023-03-26T09:53:59.361Z,46.63
2023-03-26T09:55:39.114Z,46.7
2023-03-26T09:57:18.887Z,46.49
2023-03-26T09:58:58.655Z,46.33
2023-03-26T10:00:38.554Z,46.34
2023-03-26T10:02:18.184Z,46.36
2023-03-26T10:03:57.997Z,46.42
2023-03-26T10:05:37.709Z,46.13
2023-03-26T10:07:17.460Z,45.66
2023-03-26T10:08:57.374Z,45.15
2023-03-26T10:10:36.999Z,45.22
2023-03-26T10:12:16.778Z,45.55
2023-03-26T10:13:56.529Z,46.11
2023-03-26T10:15:36.297Z,46.14
2023-03-26T10:17:16.054Z,45.75
2023-03-26T10:18:55.808Z,46.13
2023-03-26T10:20:35.570Z,46.78
2023-03-26T10:22:15.346Z,46.61
2023-03-26T10:23:55.117Z,46.57
2023-03-26T10:25:34.919Z,46.82
2023-03-26T10:27:14.628Z,46.51
2023-03-26T10:28:54.391Z,46.34
2023-03-26T10:30:34.194Z,46.13
2023-03-26T10:32:13.929Z,45.91
2023-03-26T10:33:53.727Z,45.8
2023-03-26T10:35:33.456Z,45.87
2023-03-26T10:37:13.286Z,45.9
2023-03-26T10:38:52.988Z,45.55
2023-03-26T10:40:32.739Z,45.93
2023-03-26T10:42:12.505Z,46.63
2023-03-26T10:43:52.282Z,46.62
2023-03-26T10:45:32.029Z,46.32
2023-03-26T10:47:11.792Z,46.25
2023-03-26T10:48:51.566Z,46.35
2023-03-26T10:50:31.324Z,47.07
2023-03-26T10:52:11.093Z,47.02
2023-03-26T10:53:50.844Z,46.66
2023-03-26T10:55:30.618Z,46.42
2023-03-26T10:57:10.382Z,46.3
2023-03-26T10:58:50.178Z,46.36
2023-03-26T11:00:29.923Z,46.6
2023-03-26T11:02:09.681Z,46.55
2023-03-26T11:03:49.452Z,46.3
2023-03-26T11:05:29.209Z,46.29
2023-03-26T11:07:08.964Z,46.37
2023-03-26T11:08:48.746Z,45.85
2023-03-26T11:10:28.498Z,44.74
2023-03-26T11:12:08.264Z,44
2023-03-26T11:13:48.042Z,44.9
2023-03-26T11:15:27.903Z,46.01
2023-03-26T11:17:07.563Z,46.95
2023-03-26T11:18:47.334Z,47.15
2023-03-26T11:20:27.118Z,47.04
2023-03-26T11:22:06.838Z,47.33
2023-03-26T11:23:46.661Z,47.18
2023-03-26T11:25:26.372Z,47.06
2023-03-26T11:27:06.144Z,47.36
2023-03-26T11:28:46.003Z,47.14
2023-03-26T11:30:25.846Z,46.61
2023-03-26T11:32:05.502Z,46.01
2023-03-26T11:33:45.312Z,45.97
2023-03-26T11:35:24.963Z,46.07
2023-03-26T11:37:04.715Z,45.74
2023-03-26T11:40:24.253Z,46.48
2023-03-26T11:42:04.043Z,46.68
2023-03-26T11:43:43.784Z,46.43
2023-03-26T11:45:23.552Z,46.19
2023-03-26T11:47:03.320Z,46.14
2023-03-26T11:48:43.095Z,46.13
2023-03-26T11:50:22.831Z,46.24
2023-03-26T11:52:02.645Z,46.07
2023-03-26T11:53:42.381Z,45.89
2023-03-26T11:55:22.124Z,45.62
2023-03-26T11:57:01.885Z,45.73
2023-03-26T11:58:41.705Z,46.39
2023-03-26T12:00:21.399Z,46.32
2023-03-26T12:02:01.170Z,46.66
2023-03-26T12:03:40.943Z,46.75
2023-03-26T12:05:20.699Z,46.68
2023-03-26T12:07:00.457Z,46.54
2023-03-26T12:08:40.257Z,46.54
2023-03-26T12:10:20.002Z,46.26
2023-03-26T12:11:59.744Z,46.13
2023-03-26T12:13:39.547Z,46.25
2023-03-26T12:15:19.317Z,46.17
2023-03-26T12:16:59.085Z,46.42
2023-03-26T12:18:38.811Z,46.9
2023-03-26T12:20:18.571Z,47.17
2023-03-26T12:21:58.414Z,47.28
2023-03-26T12:23:38.098Z,47.35
2023-03-26T12:25:17.881Z,47.93
2023-03-26T12:26:57.666Z,46.81
2023-03-26T12:28:37.398Z,46.31
2023-03-26T12:30:17.155Z,46.29
2023-03-26T12:31:56.929Z,46.03
2023-03-26T12:33:36.711Z,46.09
2023-03-26T12:35:16.448Z,46.41
2023-03-26T12:36:56.220Z,46.48
2023-03-26T12:38:36.072Z,46.51
2023-03-26T12:40:15.771Z,46.59
2023-03-26T12:41:55.515Z,46.8
2023-03-26T12:43:51.484Z,46.93
2023-03-26T12:45:15.020Z,47.09
2023-03-26T12:46:54.795Z,46.98
2023-03-26T12:48:34.571Z,46.9
2023-03-26T12:50:14.324Z,46.59
2023-03-26T12:51:54.130Z,46.52
2023-03-26T12:53:33.852Z,46.51
2023-03-26T12:55:13.670Z,46.71
2023-03-26T12:56:53.468Z,46.64
2023-03-26T12:58:33.303Z,46.64
2023-03-26T13:00:13.008Z,46.51
2023-03-26T13:01:52.826Z,46.6
2023-03-26T13:03:32.460Z,47.04
2023-03-26T13:05:12.193Z,46.81
2023-03-26T13:06:51.962Z,46.7
2023-03-26T13:08:31.745Z,46.34
2023-03-26T13:10:11.485Z,46.24
2023-03-26T13:11:51.267Z,46.17
2023-03-26T13:13:31.066Z,46.09
2023-03-26T13:15:10.792Z,46.06
2023-03-26T13:16:50.538Z,46.1
2023-03-26T13:18:30.320Z,46.14
2023-03-26T13:20:10.080Z,46.21
2023-03-26T13:21:49.852Z,46.36
2023-03-26T13:23:29.606Z,46.58
2023-03-26T13:25:09.358Z,46.59
2023-03-26T13:26:49.132Z,46.53
2023-03-26T13:28:28.896Z,46.6
2023-03-26T13:30:08.662Z,46.59
2023-03-26T13:31:48.419Z,46.35
2023-03-26T13:33:28.174Z,46.18
2023-03-26T13:35:08.012Z,46.36
2023-03-26T13:36:47.745Z,46.44
2023-03-26T13:38:27.494Z,46.3
2023-03-26T13:40:07.243Z,45.83
2023-03-26T13:41:46.997Z,45.26
2023-03-26T13:43:26.758Z,45.56
2023-03-26T13:45:06.542Z,46.31
2023-03-26T13:46:46.290Z,46.47
2023-03-26T13:48:26.084Z,46.47
2023-03-26T13:50:05.839Z,46.37
2023-03-26T13:51:45.596Z,46.27
2023-03-26T13:53:25.358Z,46.32
2023-03-26T13:55:05.103Z,46.37
2023-03-26T13:56:44.876Z,46.62
2023-03-26T13:58:24.662Z,47.86
2023-03-26T14:00:04.420Z,46.96
2023-03-26T14:01:44.163Z,47.05
2023-03-26T14:03:23.934Z,48.08
2023-03-26T14:05:03.715Z,47.04
2023-03-26T14:06:43.478Z,47.53
2023-03-26T14:08:23.224Z,46.24
2023-03-26T14:10:03.019Z,47.16
2023-03-26T14:11:42.769Z,46.13
2023-03-26T14:13:22.511Z,46.18
2023-03-26T14:15:02.286Z,47.74
2023-03-26T14:16:42.053Z,47.92
2023-03-26T14:18:21.808Z,47.68
2023-03-26T14:20:01.605Z,47.61
2023-03-26T14:21:41.336Z,46.58
2023-03-26T14:23:21.105Z,47.12
2023-03-26T14:25:00.897Z,46.96
2023-03-26T14:26:40.622Z,47.14
2023-03-26T14:28:20.398Z,47.13
2023-03-26T14:30:00.171Z,47.23
2023-03-26T14:31:39.920Z,47.21
2023-03-26T14:33:19.676Z,46.51
2023-03-26T14:34:59.453Z,46.94
2023-03-26T14:36:39.199Z,45.57
2023-03-26T14:38:18.999Z,45.97
2023-03-26T14:39:58.750Z,45.73
2023-03-26T14:41:38.509Z,46.78
2023-03-26T14:43:18.355Z,46.98
2023-03-26T14:44:58.077Z,46.75
2023-03-26T14:46:37.812Z,46.77
2023-03-26T14:48:17.552Z,46.82
2023-03-26T14:49:57.327Z,45.87
2023-03-26T14:51:37.097Z,47.08
2023-03-26T14:53:16.858Z,46.97
2023-03-26T14:54:56.614Z,46.88
2023-03-26T14:56:36.394Z,46.84
2023-03-26T14:58:16.166Z,46.97
2023-03-26T14:59:55.911Z,46.88
2023-03-26T15:01:35.692Z,46.9
2023-03-26T15:03:15.443Z,46.72
2023-03-26T15:04:55.186Z,46.63
2023-03-26T15:06:34.996Z,46.65
2023-03-26T15:08:14.733Z,46.65
2023-03-26T15:09:54.491Z,46.62
2023-03-26T15:11:34.262Z,46.79
2023-03-26T15:13:14.033Z,46.58
2023-03-26T15:14:53.832Z,46.38
2023-03-26T15:16:33.553Z,46.36
2023-03-26T15:18:13.310Z,46.14
2023-03-26T15:19:53.086Z,45.52
2023-03-26T15:21:32.901Z,45.99
2023-03-26T15:23:12.612Z,46.46
2023-03-26T15:24:52.374Z,46.35
2023-03-26T15:26:32.143Z,46.32
2023-03-26T15:28:11.903Z,46.37
2023-03-26T15:29:51.663Z,46.38
2023-03-26T15:31:31.414Z,45.78
2023-03-26T15:33:11.209Z,45.87
2023-03-26T15:34:50.947Z,45.9
2023-03-26T15:36:30.714Z,46.05
2023-03-26T15:38:10.473Z,45.72
2023-03-26T15:39:50.231Z,45.81
2023-03-26T15:41:30.008Z,45.8
2023-03-26T15:43:09.780Z,45.77
2023-03-26T15:44:49.527Z,45.6
2023-03-26T15:46:29.321Z,45.48
2023-03-26T15:48:09.057Z,45.28
2023-03-26T15:49:48.829Z,45.15
2023-03-26T15:51:28.630Z,45.17
2023-03-26T15:53:08.348Z,45.3
2023-03-26T15:54:48.149Z,44.88
2023-03-26T15:56:27.891Z,44.61
2023-03-26T15:58:07.646Z,44.5
2023-03-26T15:59:47.408Z,44.49
2023-03-26T16:01:27.166Z,44.42
2023-03-26T16:03:06.944Z,44.44
2023-03-26T16:04:46.716Z,44.41
2023-03-26T16:06:26.468Z,44.5
2023-03-26T16:08:06.258Z,44.58
2023-03-26T16:09:45.994Z,44.58
2023-03-26T16:11:25.760Z,44.59
2023-03-26T16:13:05.503Z,44.53
2023-03-26T16:14:45.325Z,44.51
2023-03-26T16:16:25.054Z,44.41
2023-03-26T16:18:04.837Z,44.43
2023-03-26T16:19:44.590Z,44.74
2023-03-26T16:21:24.336Z,44.59
2023-03-26T16:23:04.133Z,44.26
2023-03-26T16:24:43.868Z,44.09
2023-03-26T16:26:23.645Z,44.02
2023-03-26T16:28:03.390Z,43.86
2023-03-26T16:29:43.160Z,43.75
2023-03-26T16:31:22.932Z,43.56
2023-03-26T16:33:02.697Z,43.34
2023-03-26T16:34:42.468Z,43.28
2023-03-26T16:36:22.270Z,43.17
2023-03-26T16:38:01.980Z,42.99
2023-03-26T16:39:41.750Z,42.97
2023-03-26T16:41:21.503Z,42.75
2023-03-26T16:43:01.265Z,42.69
2023-03-26T16:44:41.039Z,42.24
2023-03-26T16:46:20.797Z,42.09
2023-03-26T16:48:00.563Z,41.54
2023-03-26T16:49:40.384Z,41.07
2023-03-26T16:51:20.102Z,40.75
2023-03-26T16:52:59.846Z,40.39
2023-03-26T16:54:39.637Z,39.84
2023-03-26T16:56:19.397Z,39.04
2023-03-26T16:57:59.219Z,38.81
2023-03-26T16:59:38.912Z,37.87
2023-03-26T17:01:18.661Z,37.22
2023-03-26T17:02:58.437Z,34.06
2023-03-26T17:04:38.225Z,31.98
2023-03-26T17:06:17.959Z,19.74
2023-03-26T17:07:57.725Z,15.8
2023-03-26T17:09:37.489Z,15.65
2023-03-26T17:11:17.260Z,14.46
2023-03-26T17:12:57.003Z,24.68
2023-03-26T17:14:36.779Z,21.16
2023-03-26T17:16:16.551Z,13.43
2023-03-26T17:17:56.296Z,32.62
2023-03-26T17:19:36.084Z,13.29
2023-03-26T17:21:15.869Z,13.26
2023-03-26T17:22:55.607Z,13.21
2023-03-26T17:24:35.372Z,13.2
2023-03-26T17:26:15.123Z,13.16
2023-03-26T17:27:54.894Z,13.14
2023-03-26T17:29:34.677Z,13.14
2023-03-26T17:31:14.421Z,13.13
2023-03-26T17:32:54.178Z,13.11
2023-03-26T17:34:33.948Z,13.09
2023-03-26T17:36:13.719Z,13.09
2023-03-26T17:37:53.469Z,13.09
2023-03-26T17:39:33.241Z,13.08
2023-03-26T17:41:13.006Z,13.05
2023-03-26T17:42:52.758Z,13.03
2023-03-26T17:44:32.524Z,13.02
2023-03-26T17:46:12.299Z,12.99
2023-03-26T17:47:52.061Z,12.99
2023-03-26T17:49:31.846Z,12.96
2023-03-26T17:51:11.583Z,12.94
2023-03-26T17:52:51.333Z,12.89
2023-03-26T17:54:31.132Z,12.19
2023-03-26T17:56:10.887Z,10.36
2023-03-26T17:57:50.666Z,8.56
2023-03-26T17:59:30.415Z,6.69
2023-03-26T18:01:10.169Z,5.24
2023-03-26T18:02:49.943Z,4.1
2023-03-26T18:04:29.690Z,3.23
2023-03-26T18:06:09.463Z,2.56
2023-03-26T18:07:49.241Z,1.98
2023-03-26T18:09:28.994Z,1.53
2023-03-26T18:11:08.746Z,1.17
2023-03-26T18:12:48.520Z,0.9
2023-03-26T18:14:28.290Z,0.72
2023-03-26T18:16:08.037Z,0.58
2023-03-26T18:17:47.806Z,0.48
2023-03-26T18:19:27.584Z,0.41
2023-03-26T18:21:07.330Z,0.37
2023-03-26T18:22:47.101Z,0.33
2023-03-26T18:24:26.879Z,0.31
2023-03-26T18:26:06.624Z,0.29
2023-03-26T18:27:46.419Z,0.27
2023-03-26T18:29:26.153Z,0.24
2023-03-26T18:31:05.923Z,0.24
2023-03-26T18:32:45.686Z,0.24
2023-03-26T18:34:25.455Z,0.23
2023-03-26T18:36:05.222Z,0.22
2023-03-26T18:37:44.979Z,0.22
2023-03-26T18:39:24.740Z,0.22
2023-03-26T18:41:04.505Z,0.22
2023-03-26T18:42:44.262Z,0.21
2023-03-26T18:44:24.035Z,0.21
2023-03-26T18:46:03.811Z,0.2
2023-03-26T18:47:43.564Z,0.2
2023-03-26T18:49:23.367Z,0.19
2023-03-26T18:51:03.096Z,0.19
2023-03-26T18:52:42.903Z,0.19
2023-03-26T18:54:22.613Z,0.19
2023-03-26T18:56:02.382Z,0.21
2023-03-26T18:57:42.157Z,0.21
2023-03-26T18:59:21.893Z,0.21
2023-03-26T19:01:01.712Z,0.21
2023-03-26T19:02:41.436Z,0.2
2023-03-26T19:04:21.201Z,0.18
2023-03-26T19:06:00.964Z,0.18
2023-03-26T19:07:40.735Z,0.16
2023-03-26T19:09:20.476Z,0.16
2023-03-26T19:11:00.267Z,0.16
2023-03-26T19:12:40.015Z,0.16
2023-03-26T19:14:19.784Z,0.15
2023-03-26T19:15:59.565Z,0.15
2023-03-26T19:17:39.326Z,0.15
2023-03-26T19:19:19.069Z,0.13
2023-03-26T19:20:58.833Z,0.13
2023-03-26T19:22:38.596Z,0.15
2023-03-26T19:24:18.374Z,0.15
2023-03-26T19:25:58.141Z,0.15
2023-03-26T19:27:37.891Z,0.16
2023-03-26T19:29:17.668Z,0.16
2023-03-26T19:30:57.411Z,0.17
2023-03-26T19:32:37.180Z,0.16
2023-03-26T19:34:16.939Z,0.18
2023-03-26T19:35:56.718Z,0.18
2023-03-26T19:37:36.506Z,0.17
2023-03-26T19:39:16.300Z,0.17
2023-03-26T19:40:56.195Z,0.17
2023-03-26T19:42:35.960Z,0.16
2023-03-26T19:44:15.724Z,0.15
2023-03-26T19:45:55.459Z,0.17
2023-03-26T19:47:35.233Z,0.17
2023-03-26T19:49:14.984Z,0.15
2023-03-26T19:50:54.805Z,0.15
2023-03-26T19:52:34.406Z,0.16
2023-03-26T19:54:14.276Z,0.14
2023-03-26T19:55:54.093Z,0.15
2023-03-26T19:57:33.983Z,0.14
2023-03-26T19:59:13.604Z,0.15
2023-03-26T20:00:53.318Z,0.15
2023-03-26T20:02:33.145Z,0.14
2023-03-26T20:04:12.912Z,0.14
2023-03-26T20:05:52.648Z,0.14
2023-03-26T20:07:32.401Z,0.14
2023-03-26T20:09:12.254Z,0.16
2023-03-26T20:10:51.896Z,0.17
2023-03-26T20:12:31.523Z,0.17
2023-03-26T20:14:11.464Z,0.17
2023-03-26T20:15:51.058Z,0.17
2023-03-26T20:17:31.062Z,0.18
2023-03-26T20:19:10.747Z,0.18
2023-03-26T20:20:50.472Z,0.18
2023-03-26T20:22:30.291Z,0.16
2023-03-26T20:24:10.126Z,0.17
2023-03-26T20:25:49.823Z,0.17
2023-03-26T20:27:29.569Z,0.17
2023-03-26T20:29:09.306Z,0.16
2023-03-26T20:30:49.149Z,0.16
2023-03-26T20:32:28.816Z,0.16
2023-03-26T20:34:08.615Z,0.16
2023-03-26T20:35:48.198Z,0.16
2023-03-26T20:37:28.033Z,0.16
2023-03-26T20:39:07.783Z,0.18
2023-03-26T20:40:47.663Z,0.16
2023-03-26T20:42:27.470Z,0.15
2023-03-26T20:44:07.063Z,0.15
2023-03-26T20:45:46.973Z,0.15
2023-03-26T20:47:26.623Z,0.15
2023-03-26T20:49:06.391Z,0.14
2023-03-26T20:50:46.141Z,0.14
2023-03-26T20:52:25.972Z,0.14
2023-03-26T20:54:05.601Z,0.14
2023-03-26T20:55:45.377Z,0.14
2023-03-26T20:57:25.141Z,0.14
2023-03-26T20:59:04.914Z,0.15
2023-03-26T21:00:44.732Z,0.15
2023-03-26T21:02:24.515Z,0.15
2023-03-26T21:04:04.293Z,0.15
2023-03-26T21:05:43.946Z,0.15
2023-03-26T21:07:23.810Z,0.15
2023-03-26T21:09:03.612Z,0.13
2023-03-26T21:10:43.265Z,0.15
2023-03-26T21:12:23.124Z,0.15
2023-03-26T21:14:02.782Z,0.15
2023-03-26T21:15:42.530Z,0.15
2023-03-26T21:17:22.432Z,0.15
2023-03-26T21:19:02.058Z,0.13
2023-03-26T21:20:41.834Z,0.15
2023-03-26T21:22:21.594Z,0.13
2023-03-26T21:24:01.360Z,0.14
2023-03-26T21:25:41.129Z,0.14
2023-03-26T21:27:20.916Z,0.14
2023-03-26T21:29:00.647Z,0.16
2023-03-26T21:30:40.459Z,0.16
2023-03-26T21:32:20.260Z,0.17
2023-03-26T21:33:59.961Z,0.18
2023-03-26T21:35:39.697Z,0.18
2023-03-26T21:37:19.473Z,0.18
2023-03-26T21:38:59.334Z,0.16
2023-03-26T21:40:38.997Z,0.16
2023-03-26T21:42:18.812Z,0.17
2023-03-26T21:43:58.561Z,0.16
2023-03-26T21:45:38.298Z,0.16
2023-03-26T21:47:18.063Z,0.15